sensor_id;sensor_type;location;lat;lon;timestamp;P1;durP1;ratioP1;P2;durP2;ratioP2
52686;SDS011;38584;49.426;8.396;2024-02-21T00:00:45;24.60;;;5.85;;
52686;SDS011;38584;49.426;8.396;2024-02-21T00:03:11;25.75;;;6.32;;
52686;SDS011;38584;49.426;8.396;2024-02-21T00:05:36;30.60;;;6.97;;
52686;SDS011;38584;49.426;8.396;2024-02-21T00:08:01;22.77;;;5.80;;
52686;SDS011;38584;49.426;8.396;2024-02-21T00:10:28;24.65;;;5.32;;
52686;SDS011;38584;49.426;8.396;2024-02-21T00:12:53;20.52;;;5.75;;
52686;SDS011;38584;49.426;8.396;2024-02-21T00:15:22;24.92;;;5.47;;
52686;SDS011;38584;49.426;8.396;2024-02-21T00:17:47;25.50;;;5.90;;
52686;SDS011;38584;49.426;8.396;2024-02-21T00:20:13;25.08;;;5.82;;
52686;SDS011;38584;49.426;8.396;2024-02-21T00:22:39;19.88;;;5.90;;
52686;SDS011;38584;49.426;8.396;2024-02-21T00:25:04;24.42;;;6.13;;
52686;SDS011;38584;49.426;8.396;2024-02-21T00:27:30;20.92;;;5.53;;
52686;SDS011;38584;49.426;8.396;2024-02-21T00:29:56;22.38;;;5.97;;
52686;SDS011;38584;49.426;8.396;2024-02-21T00:32:21;22.25;;;5.85;;
52686;SDS011;38584;49.426;8.396;2024-02-21T00:34:46;18.95;;;5.88;;
52686;SDS011;38584;49.426;8.396;2024-02-21T00:37:12;26.23;;;6.13;;
52686;SDS011;38584;49.426;8.396;2024-02-21T00:39:37;24.17;;;6.03;;
52686;SDS011;38584;49.426;8.396;2024-02-21T00:42:02;21.77;;;6.20;;
52686;SDS011;38584;49.426;8.396;2024-02-21T00:44:31;21.42;;;5.63;;
52686;SDS011;38584;49.426;8.396;2024-02-21T00:46:56;25.38;;;6.32;;
52686;SDS011;38584;49.426;8.396;2024-02-21T00:49:27;25.98;;;5.93;;
52686;SDS011;38584;49.426;8.396;2024-02-21T00:51:52;24.17;;;6.15;;
52686;SDS011;38584;49.426;8.396;2024-02-21T00:54:23;19.33;;;5.53;;
52686;SDS011;38584;49.426;8.396;2024-02-21T00:56:49;23.33;;;6.13;;
52686;SDS011;38584;49.426;8.396;2024-02-21T00:59:14;22.88;;;5.85;;
52686;SDS011;38584;49.426;8.396;2024-02-21T01:01:40;19.10;;;5.95;;
52686;SDS011;38584;49.426;8.396;2024-02-21T01:04:07;25.42;;;6.80;;
52686;SDS011;38584;49.426;8.396;2024-02-21T01:06:33;19.50;;;6.22;;
52686;SDS011;38584;49.426;8.396;2024-02-21T01:08:59;25.73;;;6.13;;
52686;SDS011;38584;49.426;8.396;2024-02-21T01:11:24;19.65;;;5.97;;
52686;SDS011;38584;49.426;8.396;2024-02-21T01:13:49;18.27;;;5.80;;
52686;SDS011;38584;49.426;8.396;2024-02-21T01:16:18;23.15;;;5.45;;
52686;SDS011;38584;49.426;8.396;2024-02-21T01:18:43;23.35;;;6.03;;
52686;SDS011;38584;49.426;8.396;2024-02-21T01:21:08;25.08;;;6.18;;
52686;SDS011;38584;49.426;8.396;2024-02-21T01:23:38;28.58;;;5.50;;
52686;SDS011;38584;49.426;8.396;2024-02-21T01:26:03;28.80;;;6.68;;
52686;SDS011;38584;49.426;8.396;2024-02-21T01:28:29;22.90;;;7.13;;
52686;SDS011;38584;49.426;8.396;2024-02-21T01:30:55;19.73;;;5.68;;
52686;SDS011;38584;49.426;8.396;2024-02-21T01:33:21;25.30;;;6.43;;
52686;SDS011;38584;49.426;8.396;2024-02-21T01:35:46;27.90;;;6.95;;
52686;SDS011;38584;49.426;8.396;2024-02-21T01:38:12;21.50;;;6.57;;
52686;SDS011;38584;49.426;8.396;2024-02-21T01:40:41;27.35;;;6.82;;
52686;SDS011;38584;49.426;8.396;2024-02-21T01:43:15;22.52;;;6.13;;
52686;SDS011;38584;49.426;8.396;2024-02-21T01:45:42;24.88;;;6.07;;
52686;SDS011;38584;49.426;8.396;2024-02-21T01:48:08;18.75;;;5.45;;
52686;SDS011;38584;49.426;8.396;2024-02-21T01:50:33;26.75;;;6.15;;
52686;SDS011;38584;49.426;8.396;2024-02-21T01:56:12;17.52;;;5.38;;
52686;SDS011;38584;49.426;8.396;2024-02-21T01:58:37;22.08;;;6.35;;
52686;SDS011;38584;49.426;8.396;2024-02-21T02:01:04;22.83;;;6.07;;
52686;SDS011;38584;49.426;8.396;2024-02-21T02:03:39;27.35;;;6.18;;
52686;SDS011;38584;49.426;8.396;2024-02-21T02:06:04;23.38;;;6.00;;
52686;SDS011;38584;49.426;8.396;2024-02-21T02:08:30;22.00;;;5.72;;
52686;SDS011;38584;49.426;8.396;2024-02-21T02:10:56;25.73;;;6.13;;
52686;SDS011;38584;49.426;8.396;2024-02-21T02:13:22;22.90;;;5.68;;
52686;SDS011;38584;49.426;8.396;2024-02-21T02:15:50;24.23;;;5.47;;
52686;SDS011;38584;49.426;8.396;2024-02-21T02:18:16;21.65;;;6.20;;
52686;SDS011;38584;49.426;8.396;2024-02-21T02:20:43;21.90;;;5.88;;
52686;SDS011;38584;49.426;8.396;2024-02-21T02:23:20;23.60;;;6.10;;
52686;SDS011;38584;49.426;8.396;2024-02-21T02:25:57;26.45;;;5.63;;
52686;SDS011;38584;49.426;8.396;2024-02-21T02:28:26;22.25;;;6.32;;
52686;SDS011;38584;49.426;8.396;2024-02-21T02:30:54;25.27;;;5.60;;
52686;SDS011;38584;49.426;8.396;2024-02-21T02:33:20;22.35;;;5.57;;
52686;SDS011;38584;49.426;8.396;2024-02-21T02:35:48;30.95;;;7.18;;
52686;SDS011;38584;49.426;8.396;2024-02-21T02:38:17;23.00;;;6.03;;
52686;SDS011;38584;49.426;8.396;2024-02-21T02:40:51;22.77;;;5.72;;
52686;SDS011;38584;49.426;8.396;2024-02-21T02:43:17;19.95;;;5.45;;
52686;SDS011;38584;49.426;8.396;2024-02-21T02:45:48;26.63;;;6.07;;
52686;SDS011;38584;49.426;8.396;2024-02-21T02:48:14;18.75;;;5.93;;
52686;SDS011;38584;49.426;8.396;2024-02-21T02:50:45;20.60;;;5.45;;
52686;SDS011;38584;49.426;8.396;2024-02-21T02:53:11;20.58;;;5.85;;
52686;SDS011;38584;49.426;8.396;2024-02-21T02:55:39;23.52;;;5.63;;
52686;SDS011;38584;49.426;8.396;2024-02-21T02:58:13;21.55;;;5.80;;
52686;SDS011;38584;49.426;8.396;2024-02-21T03:00:39;26.33;;;6.10;;
52686;SDS011;38584;49.426;8.396;2024-02-21T03:03:07;22.58;;;5.78;;
52686;SDS011;38584;49.426;8.396;2024-02-21T03:05:33;23.90;;;5.82;;
52686;SDS011;38584;49.426;8.396;2024-02-21T03:07:59;17.08;;;5.28;;
52686;SDS011;38584;49.426;8.396;2024-02-21T03:10:24;22.90;;;5.90;;
52686;SDS011;38584;49.426;8.396;2024-02-21T03:12:52;24.83;;;5.82;;
52686;SDS011;38584;49.426;8.396;2024-02-21T03:15:18;23.75;;;6.07;;
52686;SDS011;38584;49.426;8.396;2024-02-21T03:17:46;24.85;;;5.97;;
52686;SDS011;38584;49.426;8.396;2024-02-21T03:20:12;21.05;;;6.47;;
52686;SDS011;38584;49.426;8.396;2024-02-21T03:22:38;17.58;;;5.65;;
52686;SDS011;38584;49.426;8.396;2024-02-21T03:25:03;26.90;;;6.35;;
52686;SDS011;38584;49.426;8.396;2024-02-21T03:27:29;24.00;;;6.30;;
52686;SDS011;38584;49.426;8.396;2024-02-21T03:29:54;21.13;;;6.07;;
52686;SDS011;38584;49.426;8.396;2024-02-21T03:32:20;30.38;;;6.72;;
52686;SDS011;38584;49.426;8.396;2024-02-21T03:34:45;23.23;;;6.78;;
52686;SDS011;38584;49.426;8.396;2024-02-21T03:37:13;21.48;;;5.72;;
52686;SDS011;38584;49.426;8.396;2024-02-21T03:39:39;26.95;;;6.30;;
52686;SDS011;38584;49.426;8.396;2024-02-21T03:42:10;18.73;;;6.05;;
52686;SDS011;38584;49.426;8.396;2024-02-21T03:44:36;16.27;;;5.38;;
52686;SDS011;38584;49.426;8.396;2024-02-21T03:47:04;19.67;;;6.13;;
52686;SDS011;38584;49.426;8.396;2024-02-21T03:49:33;30.08;;;6.18;;
52686;SDS011;38584;49.426;8.396;2024-02-21T03:51:58;26.60;;;6.50;;
52686;SDS011;38584;49.426;8.396;2024-02-21T03:54:24;24.38;;;5.90;;
52686;SDS011;38584;49.426;8.396;2024-02-21T03:56:49;25.20;;;6.03;;
52686;SDS011;38584;49.426;8.396;2024-02-21T03:59:17;20.55;;;5.63;;
52686;SDS011;38584;49.426;8.396;2024-02-21T04:01:42;22.67;;;6.38;;
52686;SDS011;38584;49.426;8.396;2024-02-21T04:04:08;19.42;;;5.95;;
52686;SDS011;38584;49.426;8.396;2024-02-21T04:06:34;23.27;;;5.80;;
52686;SDS011;38584;49.426;8.396;2024-02-21T04:08:59;22.38;;;5.97;;
52686;SDS011;38584;49.426;8.396;2024-02-21T04:11:25;22.65;;;5.55;;
52686;SDS011;38584;49.426;8.396;2024-02-21T04:13:53;19.17;;;5.78;;
52686;SDS011;38584;49.426;8.396;2024-02-21T04:16:18;20.35;;;5.68;;
52686;SDS011;38584;49.426;8.396;2024-02-21T04:18:47;20.90;;;6.30;;
52686;SDS011;38584;49.426;8.396;2024-02-21T04:21:14;20.80;;;6.25;;
52686;SDS011;38584;49.426;8.396;2024-02-21T04:23:40;20.25;;;5.63;;
52686;SDS011;38584;49.426;8.396;2024-02-21T04:26:05;26.10;;;6.72;;
52686;SDS011;38584;49.426;8.396;2024-02-21T04:28:31;25.92;;;7.15;;
52686;SDS011;38584;49.426;8.396;2024-02-21T04:31:02;20.55;;;6.13;;
52686;SDS011;38584;49.426;8.396;2024-02-21T04:33:27;21.90;;;6.55;;
52686;SDS011;38584;49.426;8.396;2024-02-21T04:35:53;23.00;;;6.75;;
52686;SDS011;38584;49.426;8.396;2024-02-21T04:38:20;25.10;;;6.05;;
52686;SDS011;38584;49.426;8.396;2024-02-21T04:40:45;21.75;;;6.00;;
52686;SDS011;38584;49.426;8.396;2024-02-21T04:43:10;19.45;;;6.18;;
52686;SDS011;38584;49.426;8.396;2024-02-21T04:45:36;26.80;;;6.05;;
52686;SDS011;38584;49.426;8.396;2024-02-21T04:48:01;17.05;;;5.70;;
52686;SDS011;38584;49.426;8.396;2024-02-21T04:50:26;20.58;;;5.75;;
52686;SDS011;38584;49.426;8.396;2024-02-21T04:52:55;21.67;;;7.03;;
52686;SDS011;38584;49.426;8.396;2024-02-21T04:55:20;21.58;;;6.78;;
52686;SDS011;38584;49.426;8.396;2024-02-21T04:57:49;21.17;;;5.70;;
52686;SDS011;38584;49.426;8.396;2024-02-21T05:00:14;25.05;;;5.93;;
52686;SDS011;38584;49.426;8.396;2024-02-21T05:02:40;19.63;;;6.13;;
52686;SDS011;38584;49.426;8.396;2024-02-21T05:05:05;21.20;;;5.97;;
52686;SDS011;38584;49.426;8.396;2024-02-21T05:07:30;21.35;;;5.88;;
52686;SDS011;38584;49.426;8.396;2024-02-21T05:09:56;26.13;;;6.00;;
52686;SDS011;38584;49.426;8.396;2024-02-21T05:12:21;21.20;;;6.70;;
52686;SDS011;38584;49.426;8.396;2024-02-21T05:14:47;27.73;;;7.05;;
52686;SDS011;38584;49.426;8.396;2024-02-21T05:17:12;20.80;;;6.00;;
52686;SDS011;38584;49.426;8.396;2024-02-21T05:19:37;21.63;;;5.72;;
52686;SDS011;38584;49.426;8.396;2024-02-21T05:22:03;25.15;;;5.60;;
52686;SDS011;38584;49.426;8.396;2024-02-21T05:24:28;22.27;;;6.25;;
52686;SDS011;38584;49.426;8.396;2024-02-21T05:26:54;27.95;;;6.22;;
52686;SDS011;38584;49.426;8.396;2024-02-21T05:29:20;16.13;;;5.75;;
52686;SDS011;38584;49.426;8.396;2024-02-21T05:34:22;21.48;;;6.13;;
52686;SDS011;38584;49.426;8.396;2024-02-21T05:36:47;25.85;;;7.55;;
52686;SDS011;38584;49.426;8.396;2024-02-21T05:39:14;23.75;;;6.43;;
52686;SDS011;38584;49.426;8.396;2024-02-21T05:41:42;20.60;;;6.50;;
52686;SDS011;38584;49.426;8.396;2024-02-21T05:44:08;21.55;;;5.88;;
52686;SDS011;38584;49.426;8.396;2024-02-21T05:46:33;22.70;;;7.00;;
52686;SDS011;38584;49.426;8.396;2024-02-21T05:48:58;22.50;;;6.13;;
52686;SDS011;38584;49.426;8.396;2024-02-21T05:51:24;26.45;;;6.35;;
52686;SDS011;38584;49.426;8.396;2024-02-21T05:53:52;20.85;;;5.95;;
52686;SDS011;38584;49.426;8.396;2024-02-21T05:56:17;22.20;;;6.15;;
52686;SDS011;38584;49.426;8.396;2024-02-21T05:58:45;20.23;;;6.13;;
52686;SDS011;38584;49.426;8.396;2024-02-21T06:01:11;18.75;;;5.57;;
52686;SDS011;38584;49.426;8.396;2024-02-21T06:03:36;19.58;;;5.75;;
52686;SDS011;38584;49.426;8.396;2024-02-21T06:06:02;17.77;;;5.65;;
52686;SDS011;38584;49.426;8.396;2024-02-21T06:08:31;18.85;;;5.93;;
52686;SDS011;38584;49.426;8.396;2024-02-21T06:10:56;17.05;;;6.00;;
52686;SDS011;38584;49.426;8.396;2024-02-21T06:13:22;22.38;;;6.55;;
52686;SDS011;38584;49.426;8.396;2024-02-21T06:15:50;21.80;;;6.88;;
52686;SDS011;38584;49.426;8.396;2024-02-21T06:18:19;22.17;;;6.18;;
52686;SDS011;38584;49.426;8.396;2024-02-21T06:20:45;20.85;;;5.90;;
52686;SDS011;38584;49.426;8.396;2024-02-21T06:23:14;25.25;;;6.63;;
52686;SDS011;38584;49.426;8.396;2024-02-21T06:25:41;21.25;;;5.97;;
52686;SDS011;38584;49.426;8.396;2024-02-21T06:28:06;20.40;;;6.82;;
52686;SDS011;38584;49.426;8.396;2024-02-21T06:30:32;26.40;;;7.38;;
52686;SDS011;38584;49.426;8.396;2024-02-21T06:32:57;22.42;;;6.18;;
52686;SDS011;38584;49.426;8.396;2024-02-21T06:35:24;21.85;;;6.80;;
52686;SDS011;38584;49.426;8.396;2024-02-21T06:37:50;25.77;;;7.35;;
52686;SDS011;38584;49.426;8.396;2024-02-21T06:40:21;21.77;;;7.32;;
52686;SDS011;38584;49.426;8.396;2024-02-21T06:42:50;25.70;;;7.35;;
52686;SDS011;38584;49.426;8.396;2024-02-21T06:45:18;28.67;;;8.27;;
52686;SDS011;38584;49.426;8.396;2024-02-21T06:47:45;29.00;;;7.57;;
52686;SDS011;38584;49.426;8.396;2024-02-21T06:50:12;25.65;;;7.68;;
52686;SDS011;38584;49.426;8.396;2024-02-21T06:52:40;25.00;;;7.18;;
52686;SDS011;38584;49.426;8.396;2024-02-21T06:55:05;23.73;;;7.95;;
52686;SDS011;38584;49.426;8.396;2024-02-21T06:57:33;21.60;;;6.97;;
52686;SDS011;38584;49.426;8.396;2024-02-21T06:59:59;23.52;;;7.57;;
52686;SDS011;38584;49.426;8.396;2024-02-21T07:02:24;23.20;;;7.60;;
52686;SDS011;38584;49.426;8.396;2024-02-21T07:04:53;25.90;;;7.88;;
52686;SDS011;38584;49.426;8.396;2024-02-21T07:07:18;25.33;;;7.63;;
52686;SDS011;38584;49.426;8.396;2024-02-21T07:09:43;28.75;;;7.43;;
52686;SDS011;38584;49.426;8.396;2024-02-21T07:12:18;21.30;;;7.63;;
52686;SDS011;38584;49.426;8.396;2024-02-21T07:14:44;16.73;;;6.50;;
52686;SDS011;38584;49.426;8.396;2024-02-21T07:17:09;34.03;;;8.27;;
52686;SDS011;38584;49.426;8.396;2024-02-21T07:19:35;26.08;;;7.72;;
52686;SDS011;38584;49.426;8.396;2024-02-21T07:22:00;27.20;;;7.82;;
52686;SDS011;38584;49.426;8.396;2024-02-21T07:24:26;23.60;;;7.38;;
52686;SDS011;38584;49.426;8.396;2024-02-21T07:26:51;21.25;;;7.10;;
52686;SDS011;38584;49.426;8.396;2024-02-21T07:29:17;21.98;;;7.05;;
52686;SDS011;38584;49.426;8.396;2024-02-21T07:31:42;28.98;;;7.40;;
52686;SDS011;38584;49.426;8.396;2024-02-21T07:34:14;24.95;;;8.05;;
52686;SDS011;38584;49.426;8.396;2024-02-21T07:36:40;25.90;;;6.82;;
52686;SDS011;38584;49.426;8.396;2024-02-21T07:39:08;26.05;;;7.57;;
52686;SDS011;38584;49.426;8.396;2024-02-21T07:41:33;31.90;;;7.32;;
52686;SDS011;38584;49.426;8.396;2024-02-21T07:43:59;22.05;;;7.20;;
52686;SDS011;38584;49.426;8.396;2024-02-21T07:46:31;20.65;;;7.80;;
52686;SDS011;38584;49.426;8.396;2024-02-21T07:48:56;25.17;;;7.25;;
52686;SDS011;38584;49.426;8.396;2024-02-21T07:51:22;23.17;;;6.50;;
52686;SDS011;38584;49.426;8.396;2024-02-21T07:53:47;23.50;;;7.20;;
52686;SDS011;38584;49.426;8.396;2024-02-21T07:56:19;23.30;;;7.78;;
52686;SDS011;38584;49.426;8.396;2024-02-21T07:58:44;29.90;;;7.47;;
52686;SDS011;38584;49.426;8.396;2024-02-21T08:01:19;23.77;;;8.38;;
52686;SDS011;38584;49.426;8.396;2024-02-21T08:03:45;18.23;;;7.32;;
52686;SDS011;38584;49.426;8.396;2024-02-21T08:06:11;19.45;;;6.95;;
52686;SDS011;38584;49.426;8.396;2024-02-21T08:08:40;25.67;;;7.05;;
52686;SDS011;38584;49.426;8.396;2024-02-21T08:11:05;22.95;;;6.88;;
52686;SDS011;38584;49.426;8.396;2024-02-21T08:13:31;22.05;;;6.68;;
52686;SDS011;38584;49.426;8.396;2024-02-21T08:15:56;22.52;;;7.35;;
52686;SDS011;38584;49.426;8.396;2024-02-21T08:18:22;24.92;;;7.00;;
52686;SDS011;38584;49.426;8.396;2024-02-21T08:20:50;21.17;;;6.78;;
52686;SDS011;38584;49.426;8.396;2024-02-21T08:23:23;28.83;;;7.18;;
52686;SDS011;38584;49.426;8.396;2024-02-21T08:25:49;18.52;;;6.22;;
52686;SDS011;38584;49.426;8.396;2024-02-21T08:28:17;21.75;;;6.35;;
52686;SDS011;38584;49.426;8.396;2024-02-21T08:30:45;23.27;;;6.22;;
52686;SDS011;38584;49.426;8.396;2024-02-21T08:33:13;19.67;;;5.97;;
52686;SDS011;38584;49.426;8.396;2024-02-21T08:35:39;19.00;;;6.13;;
52686;SDS011;38584;49.426;8.396;2024-02-21T08:38:08;15.93;;;5.60;;
52686;SDS011;38584;49.426;8.396;2024-02-21T08:40:33;24.52;;;6.72;;
52686;SDS011;38584;49.426;8.396;2024-02-21T08:43:00;18.95;;;5.80;;
52686;SDS011;38584;49.426;8.396;2024-02-21T08:45:25;29.58;;;6.55;;
52686;SDS011;38584;49.426;8.396;2024-02-21T08:47:51;17.85;;;6.32;;
52686;SDS011;38584;49.426;8.396;2024-02-21T08:50:19;19.15;;;5.82;;
52686;SDS011;38584;49.426;8.396;2024-02-21T08:52:44;28.15;;;6.32;;
52686;SDS011;38584;49.426;8.396;2024-02-21T08:55:10;20.73;;;6.05;;
52686;SDS011;38584;49.426;8.396;2024-02-21T08:57:41;18.48;;;5.60;;
52686;SDS011;38584;49.426;8.396;2024-02-21T09:00:06;18.20;;;5.20;;
52686;SDS011;38584;49.426;8.396;2024-02-21T09:02:41;22.00;;;5.13;;
52686;SDS011;38584;49.426;8.396;2024-02-21T09:05:11;25.00;;;6.47;;
52686;SDS011;38584;49.426;8.396;2024-02-21T09:07:39;16.65;;;5.18;;
52686;SDS011;38584;49.426;8.396;2024-02-21T09:10:05;17.30;;;5.43;;
52686;SDS011;38584;49.426;8.396;2024-02-21T09:12:31;19.63;;;5.85;;
52686;SDS011;38584;49.426;8.396;2024-02-21T09:15:00;23.77;;;5.93;;
52686;SDS011;38584;49.426;8.396;2024-02-21T09:17:25;22.75;;;5.93;;
52686;SDS011;38584;49.426;8.396;2024-02-21T09:19:51;20.60;;;5.43;;
52686;SDS011;38584;49.426;8.396;2024-02-21T09:22:23;19.50;;;4.97;;
52686;SDS011;38584;49.426;8.396;2024-02-21T09:24:48;21.88;;;5.40;;
52686;SDS011;38584;49.426;8.396;2024-02-21T09:27:13;17.77;;;5.80;;
52686;SDS011;38584;49.426;8.396;2024-02-21T09:29:41;19.52;;;5.28;;
52686;SDS011;38584;49.426;8.396;2024-02-21T09:32:07;20.63;;;5.65;;
52686;SDS011;38584;49.426;8.396;2024-02-21T09:34:32;21.83;;;5.40;;
52686;SDS011;38584;49.426;8.396;2024-02-21T09:37:00;18.67;;;4.95;;
52686;SDS011;38584;49.426;8.396;2024-02-21T09:39:25;17.17;;;4.93;;
52686;SDS011;38584;49.426;8.396;2024-02-21T09:41:59;23.17;;;5.53;;
52686;SDS011;38584;49.426;8.396;2024-02-21T09:44:28;21.52;;;5.53;;
52686;SDS011;38584;49.426;8.396;2024-02-21T09:47:10;18.88;;;4.82;;
52686;SDS011;38584;49.426;8.396;2024-02-21T09:49:39;20.95;;;5.25;;
52686;SDS011;38584;49.426;8.396;2024-02-21T09:52:06;21.40;;;5.53;;
52686;SDS011;38584;49.426;8.396;2024-02-21T09:54:32;22.05;;;5.40;;
52686;SDS011;38584;49.426;8.396;2024-02-21T09:57:08;21.95;;;5.45;;
52686;SDS011;38584;49.426;8.396;2024-02-21T09:59:33;22.10;;;4.75;;
52686;SDS011;38584;49.426;8.396;2024-02-21T10:01:59;18.63;;;4.80;;
52686;SDS011;38584;49.426;8.396;2024-02-21T10:04:25;18.08;;;4.45;;
52686;SDS011;38584;49.426;8.396;2024-02-21T10:06:51;17.83;;;4.22;;
52686;SDS011;38584;49.426;8.396;2024-02-21T10:09:26;18.25;;;3.95;;
52686;SDS011;38584;49.426;8.396;2024-02-21T10:11:55;21.63;;;4.30;;
52686;SDS011;38584;49.426;8.396;2024-02-21T10:14:21;26.42;;;4.82;;
52686;SDS011;38584;49.426;8.396;2024-02-21T10:16:57;21.10;;;3.83;;
52686;SDS011;38584;49.426;8.396;2024-02-21T10:19:26;19.10;;;4.28;;
52686;SDS011;38584;49.426;8.396;2024-02-21T10:22:01;18.70;;;4.03;;
52686;SDS011;38584;49.426;8.396;2024-02-21T10:24:28;25.60;;;4.43;;
52686;SDS011;38584;49.426;8.396;2024-02-21T10:27:03;17.30;;;4.13;;
52686;SDS011;38584;49.426;8.396;2024-02-21T10:29:38;14.25;;;3.30;;
52686;SDS011;38584;49.426;8.396;2024-02-21T10:32:07;17.23;;;3.60;;
52686;SDS011;38584;49.426;8.396;2024-02-21T10:34:37;16.30;;;3.42;;
52686;SDS011;38584;49.426;8.396;2024-02-21T10:37:07;15.68;;;3.40;;
52686;SDS011;38584;49.426;8.396;2024-02-21T10:39:37;17.45;;;3.50;;
52686;SDS011;38584;49.426;8.396;2024-02-21T10:42:14;13.07;;;3.50;;
52686;SDS011;38584;49.426;8.396;2024-02-21T10:44:42;15.82;;;3.88;;
52686;SDS011;38584;49.426;8.396;2024-02-21T10:47:11;16.88;;;3.40;;
52686;SDS011;38584;49.426;8.396;2024-02-21T10:49:41;19.98;;;3.78;;
52686;SDS011;38584;49.426;8.396;2024-02-21T10:57:14;16.73;;;3.63;;
52686;SDS011;38584;49.426;8.396;2024-02-21T10:59:40;16.33;;;3.30;;
52686;SDS011;38584;49.426;8.396;2024-02-21T11:02:06;15.32;;;3.40;;
52686;SDS011;38584;49.426;8.396;2024-02-21T11:04:32;16.10;;;3.33;;
52686;SDS011;38584;49.426;8.396;2024-02-21T11:07:01;15.82;;;3.58;;
52686;SDS011;38584;49.426;8.396;2024-02-21T11:09:31;16.45;;;3.60;;
52686;SDS011;38584;49.426;8.396;2024-02-21T11:11:57;17.95;;;3.83;;
52686;SDS011;38584;49.426;8.396;2024-02-21T11:14:26;21.38;;;4.13;;
52686;SDS011;38584;49.426;8.396;2024-02-21T11:16:52;18.27;;;3.60;;
52686;SDS011;38584;49.426;8.396;2024-02-21T11:19:30;17.73;;;3.50;;
52686;SDS011;38584;49.426;8.396;2024-02-21T11:21:56;19.23;;;3.85;;
52686;SDS011;38584;49.426;8.396;2024-02-21T11:24:40;15.75;;;3.13;;
52686;SDS011;38584;49.426;8.396;2024-02-21T11:27:09;14.68;;;3.00;;
52686;SDS011;38584;49.426;8.396;2024-02-21T11:29:44;15.70;;;3.65;;
52686;SDS011;38584;49.426;8.396;2024-02-21T11:32:10;18.73;;;4.32;;
52686;SDS011;38584;49.426;8.396;2024-02-21T11:34:36;14.50;;;3.08;;
52686;SDS011;38584;49.426;8.396;2024-02-21T11:37:02;15.13;;;3.70;;
52686;SDS011;38584;49.426;8.396;2024-02-21T11:39:38;14.77;;;3.20;;
52686;SDS011;38584;49.426;8.396;2024-02-21T11:42:04;17.23;;;3.22;;
52686;SDS011;38584;49.426;8.396;2024-02-21T11:44:34;13.88;;;3.00;;
52686;SDS011;38584;49.426;8.396;2024-02-21T11:47:00;15.65;;;3.33;;
52686;SDS011;38584;49.426;8.396;2024-02-21T11:49:28;18.23;;;3.97;;
52686;SDS011;38584;49.426;8.396;2024-02-21T11:52:00;15.10;;;3.10;;
52686;SDS011;38584;49.426;8.396;2024-02-21T11:54:26;15.75;;;3.10;;
52686;SDS011;38584;49.426;8.396;2024-02-21T11:56:52;13.43;;;3.20;;
52686;SDS011;38584;49.426;8.396;2024-02-21T11:59:17;14.90;;;3.55;;
52686;SDS011;38584;49.426;8.396;2024-02-21T12:01:43;14.00;;;3.35;;
52686;SDS011;38584;49.426;8.396;2024-02-21T12:04:08;18.35;;;3.13;;
52686;SDS011;38584;49.426;8.396;2024-02-21T12:06:33;14.43;;;3.30;;
52686;SDS011;38584;49.426;8.396;2024-02-21T12:08:59;14.55;;;3.38;;
52686;SDS011;38584;49.426;8.396;2024-02-21T12:11:27;12.80;;;2.78;;
52686;SDS011;38584;49.426;8.396;2024-02-21T12:13:59;15.35;;;3.13;;
52686;SDS011;38584;49.426;8.396;2024-02-21T12:16:37;14.90;;;3.55;;
52686;SDS011;38584;49.426;8.396;2024-02-21T12:19:03;18.27;;;3.42;;
52686;SDS011;38584;49.426;8.396;2024-02-21T12:21:32;18.92;;;3.70;;
52686;SDS011;38584;49.426;8.396;2024-02-21T12:24:11;16.02;;;3.60;;
52686;SDS011;38584;49.426;8.396;2024-02-21T12:26:38;14.35;;;3.40;;
52686;SDS011;38584;49.426;8.396;2024-02-21T12:29:03;14.80;;;3.63;;
52686;SDS011;38584;49.426;8.396;2024-02-21T12:31:29;15.82;;;3.35;;
52686;SDS011;38584;49.426;8.396;2024-02-21T12:33:54;13.30;;;3.22;;
52686;SDS011;38584;49.426;8.396;2024-02-21T12:36:20;13.00;;;3.30;;
52686;SDS011;38584;49.426;8.396;2024-02-21T12:38:45;19.17;;;3.88;;
52686;SDS011;38584;49.426;8.396;2024-02-21T12:41:13;15.25;;;3.10;;
52686;SDS011;38584;49.426;8.396;2024-02-21T12:43:42;18.27;;;3.60;;
52686;SDS011;38584;49.426;8.396;2024-02-21T12:46:07;17.75;;;4.25;;
52686;SDS011;38584;49.426;8.396;2024-02-21T12:48:33;14.90;;;3.65;;
52686;SDS011;38584;49.426;8.396;2024-02-21T12:51:02;14.77;;;3.75;;
52686;SDS011;38584;49.426;8.396;2024-02-21T12:53:27;15.48;;;2.90;;
52686;SDS011;38584;49.426;8.396;2024-02-21T12:55:53;15.05;;;3.63;;
52686;SDS011;38584;49.426;8.396;2024-02-21T12:58:18;15.18;;;3.38;;
52686;SDS011;38584;49.426;8.396;2024-02-21T13:00:44;16.40;;;3.13;;
52686;SDS011;38584;49.426;8.396;2024-02-21T13:03:09;13.65;;;3.00;;
52686;SDS011;38584;49.426;8.396;2024-02-21T13:05:35;14.70;;;3.33;;
52686;SDS011;38584;49.426;8.396;2024-02-21T13:08:05;15.02;;;4.05;;
52686;SDS011;38584;49.426;8.396;2024-02-21T13:10:31;18.20;;;3.10;;
52686;SDS011;38584;49.426;8.396;2024-02-21T13:13:01;16.92;;;2.90;;
52686;SDS011;38584;49.426;8.396;2024-02-21T13:15:26;14.88;;;3.13;;
52686;SDS011;38584;49.426;8.396;2024-02-21T13:17:53;13.85;;;3.35;;
52686;SDS011;38584;49.426;8.396;2024-02-21T13:20:22;17.60;;;3.40;;
52686;SDS011;38584;49.426;8.396;2024-02-21T13:22:47;14.90;;;3.05;;
52686;SDS011;38584;49.426;8.396;2024-02-21T13:25:15;15.98;;;3.38;;
52686;SDS011;38584;49.426;8.396;2024-02-21T13:27:43;21.25;;;3.40;;
52686;SDS011;38584;49.426;8.396;2024-02-21T13:30:09;17.80;;;3.45;;
52686;SDS011;38584;49.426;8.396;2024-02-21T13:32:37;14.63;;;3.30;;
52686;SDS011;38584;49.426;8.396;2024-02-21T13:35:03;11.70;;;2.90;;
52686;SDS011;38584;49.426;8.396;2024-02-21T13:37:35;16.17;;;2.85;;
52686;SDS011;38584;49.426;8.396;2024-02-21T13:40:08;14.93;;;3.25;;
52686;SDS011;38584;49.426;8.396;2024-02-21T13:42:37;15.73;;;2.97;;
52686;SDS011;38584;49.426;8.396;2024-02-21T13:45:03;16.48;;;3.15;;
52686;SDS011;38584;49.426;8.396;2024-02-21T13:47:33;17.83;;;3.63;;
52686;SDS011;38584;49.426;8.396;2024-02-21T13:49:59;16.35;;;3.72;;
52686;SDS011;38584;49.426;8.396;2024-02-21T13:52:24;17.13;;;3.35;;
52686;SDS011;38584;49.426;8.396;2024-02-21T13:54:52;16.52;;;3.13;;
52686;SDS011;38584;49.426;8.396;2024-02-21T13:57:20;14.55;;;2.97;;
52686;SDS011;38584;49.426;8.396;2024-02-21T13:59:48;15.55;;;3.53;;
52686;SDS011;38584;49.426;8.396;2024-02-21T14:02:18;13.55;;;3.13;;
52686;SDS011;38584;49.426;8.396;2024-02-21T14:04:43;15.63;;;3.20;;
52686;SDS011;38584;49.426;8.396;2024-02-21T14:07:08;15.25;;;3.30;;
52686;SDS011;38584;49.426;8.396;2024-02-21T14:09:34;16.65;;;3.30;;
52686;SDS011;38584;49.426;8.396;2024-02-21T14:11:59;15.65;;;3.20;;
52686;SDS011;38584;49.426;8.396;2024-02-21T14:14:25;18.75;;;3.90;;
52686;SDS011;38584;49.426;8.396;2024-02-21T14:16:50;14.73;;;3.28;;
52686;SDS011;38584;49.426;8.396;2024-02-21T14:19:15;15.65;;;3.30;;
52686;SDS011;38584;49.426;8.396;2024-02-21T14:21:41;14.57;;;2.97;;
52686;SDS011;38584;49.426;8.396;2024-02-21T14:24:06;14.55;;;3.22;;
52686;SDS011;38584;49.426;8.396;2024-02-21T14:26:32;16.67;;;3.88;;
52686;SDS011;38584;49.426;8.396;2024-02-21T14:28:57;20.48;;;3.42;;
52686;SDS011;38584;49.426;8.396;2024-02-21T14:31:23;16.80;;;3.63;;
52686;SDS011;38584;49.426;8.396;2024-02-21T14:33:50;14.93;;;4.03;;
52686;SDS011;38584;49.426;8.396;2024-02-21T14:36:18;16.98;;;3.80;;
52686;SDS011;38584;49.426;8.396;2024-02-21T14:38:43;12.48;;;3.30;;
52686;SDS011;38584;49.426;8.396;2024-02-21T14:41:09;15.15;;;3.25;;
52686;SDS011;38584;49.426;8.396;2024-02-21T14:43:38;12.40;;;2.90;;